Pittsburgh, Pennsylvania
Current Conditions -  °F | °C
As of 4:10 PM on Tuesday 27 Jan 2015 (Local Time) from KAGC Reporting Station
Light Snow Light Snow  
Wind Chill: 11°   Ceiling: 1800
Heat Index: 21°   Visibility: 2mi
Dew Point: 13°   Wind: 8mph
Humidity: 71%   Direction: 310°NW
Pressure: 29.96"   Gusts: NA
Location:  40.44°N, 80°W
Report Text: KAGC 272110Z 31007KT 2SM -SN BKN018 OVC026 M06/M11 A2996 RMK AO2 SNB2056 P0000 T10611106
Loading
Personal Weather Stations






























Interactive Weather Map New forecast layout! Learn more

10-Day Weather Forecast

Advertisements
Track Severe Weather on mobile